Time;durP1;ratioP1;P1;durP2;ratioP2;P2;SDS_P1;SDS_P2;PMS_P1;PMS_P2;Temp;Humidity;BMP_temperature;BMP_pressure;BME280_temperature;BME280_humidity;BME280_pressure;Samples;Min_cycle;Max_cycle;Signal;HPM_P1;HPM_P2
2021/05/31 00:02:08;;;;;;;1.30;0.20;;;18.90;47.80;;;;;;4986597;28;20030;-84
2021/05/31 00:04:34;;;;;;;0.60;0.10;;;18.80;47.90;;;;;;4958745;28;20062;-86
2021/05/31 00:07:12;;;;;;;0.45;0.00;;;18.80;48.00;;;;;;5011740;28;20038;-85
2021/05/31 00:09:39;;;;;;;0.75;0.10;;;18.80;48.20;;;;;;4979831;28;20388;-85
2021/05/31 00:12:07;;;;;;;0.50;0.20;;;18.70;48.20;;;;;;4978615;28;20035;-85
2021/05/31 00:14:33;;;;;;;0.30;0.10;;;18.70;48.40;;;;;;4978460;28;20034;-85
2021/05/31 00:16:59;;;;;;;0.30;0.10;;;18.60;48.40;;;;;;4973611;28;20047;-85
2021/05/31 00:19:25;;;;;;;0.28;0.10;;;18.60;48.50;;;;;;4958312;28;20049;-83
2021/05/31 00:21:51;;;;;;;2.72;0.50;;;18.60;48.50;;;;;;4975976;28;20027;-85
2021/05/31 00:24:18;;;;;;;0.45;0.10;;;18.60;48.60;;;;;;4974210;28;20031;-85
2021/05/31 00:26:44;;;;;;;0.82;0.20;;;18.50;48.70;;;;;;4974134;28;20039;-84
2021/05/31 00:29:10;;;;;;;0.85;0.30;;;18.50;48.80;;;;;;4958129;28;20042;-85
2021/05/31 00:31:36;;;;;;;0.40;0.10;;;18.50;49.00;;;;;;4982200;28;20050;-84
2021/05/31 00:34:02;;;;;;;0.32;0.13;;;18.40;49.10;;;;;;4978807;28;20041;-86
2021/05/31 00:36:29;;;;;;;0.95;0.20;;;18.40;49.10;;;;;;4978227;28;20046;-83
2021/05/31 00:38:55;;;;;;;0.65;0.15;;;18.40;49.20;;;;;;4978010;28;20050;-85
2021/05/31 00:41:22;;;;;;;0.20;0.00;;;18.40;49.20;;;;;;4978288;28;20033;-85
2021/05/31 00:43:48;;;;;;;0.13;0.00;;;18.30;49.20;;;;;;4975040;28;20034;-85
2021/05/31 00:46:14;;;;;;;0.30;0.20;;;18.40;49.30;;;;;;4977123;28;20488;-85
2021/05/31 00:48:40;;;;;;;0.95;0.15;;;18.30;49.30;;;;;;4975341;28;20054;-85
2021/05/31 00:51:11;;;;;;;0.20;0.15;;;18.30;49.40;;;;;;4974789;28;20099;-85
2021/05/31 00:53:38;;;;;;;1.58;0.20;;;18.20;49.60;;;;;;4973736;28;20038;-85
2021/05/31 00:56:04;;;;;;;0.47;0.17;;;18.20;49.60;;;;;;4973577;28;20026;-84
2021/05/31 00:58:31;;;;;;;0.77;0.17;;;18.10;49.60;;;;;;4957494;28;20484;-85
2021/05/31 01:00:58;;;;;;;0.70;0.20;;;18.20;49.80;;;;;;4989208;28;20066;-84
2021/05/31 01:03:24;;;;;;;0.22;0.10;;;18.10;49.80;;;;;;4989603;28;20041;-85
2021/05/31 01:05:51;;;;;;;0.45;0.20;;;18.10;49.90;;;;;;4989382;28;20035;-85
2021/05/31 01:08:24;;;;;;;0.43;0.15;;;18.10;50.00;;;;;;4989320;28;20023;-85
2021/05/31 01:11:02;;;;;;;0.82;0.50;;;18.10;50.10;;;;;;4973246;28;20027;-85
2021/05/31 01:13:31;;;;;;;1.00;0.20;;;18.00;50.00;;;;;;4973412;28;20365;-85
2021/05/31 01:16:10;;;;;;;1.55;0.55;;;18.00;50.10;;;;;;4989001;28;20031;-84
2021/05/31 01:18:41;;;;;;;1.02;0.38;;;18.00;50.20;;;;;;4974445;28;20051;-85
2021/05/31 01:21:10;;;;;;;2.80;0.28;;;18.00;50.20;;;;;;4973086;28;20030;-85
2021/05/31 01:23:37;;;;;;;0.90;0.25;;;18.00;50.30;;;;;;4974073;28;20026;-85
2021/05/31 01:26:14;;;;;;;1.50;0.38;;;17.90;50.40;;;;;;4956056;28;20495;-84
2021/05/31 01:29:04;;;;;;;1.15;0.40;;;17.90;50.50;;;;;;4973664;28;20031;-85
2021/05/31 01:31:45;;;;;;;0.90;0.20;;;17.80;50.60;;;;;;4982646;28;20043;-83
2021/05/31 01:34:11;;;;;;;;;;;17.80;50.60;;;;;;5017884;28;20396;-85
2021/05/31 01:36:47;;;;;;;0.38;0.30;;;17.80;50.60;;;;;;5009551;28;19910;-85
2021/05/31 01:39:15;;;;;;;1.45;0.30;;;17.80;50.50;;;;;;4992231;28;20057;-85
2021/05/31 01:41:41;;;;;;;0.85;0.20;;;17.80;50.50;;;;;;4992946;28;20035;-85
2021/05/31 01:44:08;;;;;;;0.40;0.20;;;17.80;50.60;;;;;;5008858;28;20033;-84
2021/05/31 01:46:34;;;;;;;0.35;0.10;;;17.80;50.60;;;;;;4956496;28;20495;-85
2021/05/31 01:49:00;;;;;;;1.17;0.50;;;17.80;50.60;;;;;;4973022;28;20023;-85
2021/05/31 01:51:26;;;;;;;0.30;0.17;;;17.80;50.70;;;;;;4988739;28;20026;-85
2021/05/31 01:53:52;;;;;;;1.88;0.25;;;17.80;50.70;;;;;;4972322;28;20031;-85
2021/05/31 01:56:19;;;;;;;1.45;0.10;;;17.70;50.80;;;;;;4972467;28;20427;-85
2021/05/31 01:58:45;;;;;;;0.10;0.00;;;17.70;50.90;;;;;;4972117;28;20043;-84
2021/05/31 02:01:11;;;;;;;2.15;0.30;;;17.70;51.50;;;;;;4977155;28;20403;-80
2021/05/31 02:03:37;;;;;;;1.45;0.38;;;17.70;51.00;;;;;;5000268;28;20027;-85
2021/05/31 02:06:04;;;;;;;0.50;0.10;;;17.70;51.10;;;;;;4964373;28;20031;-82
2021/05/31 02:08:30;;;;;;;0.75;0.25;;;17.60;51.10;;;;;;4969237;28;20242;-85
2021/05/31 02:10:58;;;;;;;2.30;0.35;;;17.60;51.10;;;;;;4985680;28;20047;-84
2021/05/31 02:13:24;;;;;;;1.05;0.30;;;17.60;51.20;;;;;;5001964;28;20369;-81
2021/05/31 02:16:03;;;;;;;0.75;0.38;;;17.60;51.30;;;;;;4985263;28;20042;-84
2021/05/31 02:18:36;;;;;;;0.80;0.35;;;17.50;51.30;;;;;;4967429;28;20046;-83
2021/05/31 02:21:06;;;;;;;0.75;0.08;;;17.50;51.40;;;;;;4967655;28;20037;-84
2021/05/31 02:23:32;;;;;;;0.60;0.25;;;17.50;51.50;;;;;;5000093;28;20053;-83
2021/05/31 02:25:58;;;;;;;1.05;0.20;;;17.50;52.10;;;;;;4967941;28;20035;-84
2021/05/31 02:28:24;;;;;;;0.60;0.22;;;17.50;51.60;;;;;;4985464;28;20041;-83
2021/05/31 02:30:51;;;;;;;1.35;0.22;;;17.40;51.60;;;;;;4953052;28;20031;-86
2021/05/31 02:33:17;;;;;;;0.10;0.03;;;17.40;51.60;;;;;;4967558;28;20530;-84
2021/05/31 02:35:43;;;;;;;0.38;0.30;;;17.40;51.70;;;;;;4969383;28;20035;-84
2021/05/31 02:38:09;;;;;;;0.38;0.15;;;17.30;51.80;;;;;;4972976;28;20043;-84
2021/05/31 02:40:36;;;;;;;0.45;0.17;;;17.20;52.00;;;;;;4973060;28;20034;-85
2021/05/31 02:43:08;;;;;;;0.60;0.10;;;17.20;52.20;;;;;;4988219;28;20041;-84
2021/05/31 02:45:34;;;;;;;0.22;0.13;;;17.10;52.40;;;;;;4977022;28;20042;-84
2021/05/31 02:48:01;;;;;;;1.17;0.40;;;17.00;52.50;;;;;;4981647;28;20053;-85
2021/05/31 02:50:27;;;;;;;0.75;0.13;;;16.90;52.70;;;;;;4976237;28;20507;-84
2021/05/31 02:52:54;;;;;;;5.15;0.45;;;16.90;52.80;;;;;;4973687;28;20023;-84
2021/05/31 02:55:25;;;;;;;0.40;0.10;;;16.90;53.00;;;;;;4974938;28;20034;-84
2021/05/31 02:57:51;;;;;;;0.40;0.10;;;16.80;53.00;;;;;;5006080;28;20038;-84
2021/05/31 03:00:18;;;;;;;0.10;0.00;;;16.80;53.10;;;;;;4976742;28;20662;-85
2021/05/31 03:02:45;;;;;;;0.85;0.40;;;16.80;53.10;;;;;;4972925;28;20030;-84
2021/05/31 03:05:15;;;;;;;0.35;0.10;;;16.70;53.20;;;;;;4971598;28;20476;-85
2021/05/31 03:07:41;;;;;;;1.25;0.28;;;16.60;53.30;;;;;;4956861;28;20392;-83
2021/05/31 03:10:08;;;;;;;0.70;0.40;;;16.60;53.30;;;;;;4971945;28;20039;-83
2021/05/31 03:12:34;;;;;;;0.70;0.40;;;16.60;53.40;;;;;;4955559;28;20050;-84
2021/05/31 03:15:01;;;;;;;0.63;0.32;;;16.50;53.40;;;;;;4954490;28;20050;-84
2021/05/31 03:17:27;;;;;;;1.50;0.20;;;16.50;53.50;;;;;;4985896;28;20034;-83
2021/05/31 03:19:53;;;;;;;4.00;0.20;;;16.50;53.60;;;;;;4978138;28;20049;-85
2021/05/31 03:22:20;;;;;;;1.38;0.25;;;16.40;53.50;;;;;;4978898;28;20027;-84
2021/05/31 03:24:46;;;;;;;1.13;0.40;;;16.40;53.70;;;;;;5011919;28;20388;-85
2021/05/31 03:27:12;;;;;;;1.55;0.25;;;16.40;53.80;;;;;;5011951;28;20031;-85
2021/05/31 03:29:38;;;;;;;1.25;0.30;;;16.30;53.90;;;;;;4980485;28;20452;-83
2021/05/31 03:32:04;;;;;;;0.60;0.30;;;16.30;53.90;;;;;;4975813;28;20035;-82
2021/05/31 03:34:30;;;;;;;0.40;0.10;;;16.30;54.00;;;;;;4976194;28;20061;-84
2021/05/31 03:36:57;;;;;;;0.88;0.40;;;16.30;53.90;;;;;;4991753;28;20042;-85
2021/05/31 03:39:23;;;;;;;1.77;0.30;;;16.30;53.90;;;;;;4975817;28;20050;-85
2021/05/31 03:41:49;;;;;;;0.98;0.30;;;16.30;53.90;;;;;;4976010;28;20042;-85
2021/05/31 03:44:15;;;;;;;0.65;0.38;;;16.30;53.90;;;;;;4974781;28;20054;-83
2021/05/31 03:46:41;;;;;;;1.33;0.30;;;16.30;54.00;;;;;;4983450;28;20046;-85
2021/05/31 03:49:07;;;;;;;0.55;0.13;;;16.30;54.10;;;;;;4963390;28;20154;-84
2021/05/31 03:51:33;;;;;;;1.42;0.70;;;16.20;54.10;;;;;;4978933;28;20042;-85
2021/05/31 03:54:00;;;;;;;0.43;0.17;;;16.20;54.10;;;;;;4978453;28;20043;-83
2021/05/31 03:56:26;;;;;;;0.50;0.30;;;16.20;54.20;;;;;;4979023;28;20031;-85
2021/05/31 03:58:52;;;;;;;0.73;0.40;;;16.20;54.30;;;;;;4976071;28;20039;-85
2021/05/31 04:01:18;;;;;;;0.35;0.00;;;16.10;54.30;;;;;;4977945;28;20046;-85
2021/05/31 04:03:45;;;;;;;0.45;0.10;;;16.10;54.30;;;;;;4991059;28;20034;-84
2021/05/31 04:14:04;;;;;;;1.30;0.47;;;16.10;54.40;;;;;;4977383;28;20043;-84
2021/05/31 04:16:30;;;;;;;0.63;0.28;;;16.10;54.50;;;;;;4982747;28;20412;-84
2021/05/31 04:18:56;;;;;;;1.85;0.20;;;16.10;54.50;;;;;;4975916;28;20047;-85
2021/05/31 04:21:23;;;;;;;1.48;0.45;;;16.10;54.50;;;;;;5009420;28;20388;-85
2021/05/31 04:23:49;;;;;;;0.88;0.20;;;16.00;54.50;;;;;;4994103;28;20034;-85
2021/05/31 04:26:15;;;;;;;0.22;0.08;;;16.10;54.60;;;;;;5010714;28;20027;-85
2021/05/31 04:28:41;;;;;;;0.95;0.10;;;16.10;54.70;;;;;;4974406;28;20038;-86
2021/05/31 04:31:07;;;;;;;1.27;0.30;;;16.00;54.70;;;;;;4978241;28;20031;-85
2021/05/31 04:33:33;;;;;;;1.38;0.57;;;16.00;54.80;;;;;;4972812;28;20046;-84
2021/05/31 04:35:59;;;;;;;0.50;0.30;;;16.00;54.80;;;;;;4975058;28;20033;-86
2021/05/31 04:38:25;;;;;;;0.77;0.22;;;15.90;55.40;;;;;;4956497;28;20043;-85
2021/05/31 04:40:52;;;;;;;4.20;0.43;;;15.90;55.00;;;;;;4975132;28;20030;-82
2021/05/31 04:43:18;;;;;;;0.20;0.10;;;15.90;55.10;;;;;;4957991;28;20049;-82
2021/05/31 04:45:45;;;;;;;0.52;0.20;;;15.90;55.20;;;;;;4973779;28;20043;-84
2021/05/31 04:48:11;;;;;;;0.20;0.08;;;15.80;55.20;;;;;;4989684;28;20041;-85
2021/05/31 04:50:37;;;;;;;0.95;0.15;;;15.80;55.20;;;;;;4975067;28;20023;-86
2021/05/31 04:53:03;;;;;;;1.00;0.20;;;15.90;55.20;;;;;;4974623;28;20026;-85
2021/05/31 04:55:29;;;;;;;0.38;0.13;;;15.80;55.30;;;;;;4973597;28;20488;-84
2021/05/31 04:57:55;;;;;;;1.45;0.20;;;15.80;55.20;;;;;;4990146;28;20023;-84
2021/05/31 05:00:21;;;;;;;0.65;0.20;;;15.90;55.30;;;;;;4972929;28;20487;-84
2021/05/31 05:02:47;;;;;;;1.48;0.30;;;15.90;55.30;;;;;;4974440;28;20027;-84
2021/05/31 05:05:14;;;;;;;0.45;0.30;;;16.00;55.30;;;;;;4973355;28;20031;-84
2021/05/31 05:07:45;;;;;;;0.10;0.10;;;16.10;55.20;;;;;;4973206;28;20026;-84
2021/05/31 05:10:12;;;;;;;;;;;16.30;55.00;;;;;;4986171;28;20042;-84
2021/05/31 05:12:38;;;;;;;0.32;0.17;;;16.50;54.70;;;;;;4989328;28;19914;-85
2021/05/31 05:15:06;;;;;;;1.30;0.28;;;16.80;54.40;;;;;;4974117;28;20511;-84
2021/05/31 05:17:32;;;;;;;0.30;0.15;;;17.10;54.20;;;;;;4986849;28;20026;-85
2021/05/31 05:19:58;;;;;;;0.40;0.20;;;17.30;53.90;;;;;;4959441;28;20050;-84
2021/05/31 05:22:24;;;;;;;0.73;0.30;;;17.50;53.80;;;;;;4975727;28;20027;-85
2021/05/31 05:24:50;;;;;;;0.60;0.10;;;17.70;53.70;;;;;;4975996;28;20039;-84
2021/05/31 05:27:16;;;;;;;0.95;0.30;;;17.80;53.50;;;;;;4977184;28;20027;-85
2021/05/31 05:29:42;;;;;;;0.28;0.00;;;18.00;53.40;;;;;;4978336;28;20026;-84
2021/05/31 05:32:08;;;;;;;0.40;0.17;;;18.10;53.30;;;;;;4973723;28;20378;-84
2021/05/31 05:34:34;;;;;;;0.13;0.10;;;18.20;53.30;;;;;;4973943;28;20034;-84
2021/05/31 05:37:08;;;;;;;1.20;0.15;;;18.30;53.20;;;;;;4974186;28;20042;-83
2021/05/31 05:47:47;;;;;;;0.20;0.10;;;18.60;52.90;;;;;;4984896;28;20041;-84
2021/05/31 05:50:17;;;;;;;0.70;0.20;;;18.60;53.10;;;;;;4977703;28;20490;-81
2021/05/31 05:52:44;;;;;;;0.68;0.20;;;18.60;53.10;;;;;;4973042;28;20046;-85
2021/05/31 05:55:10;;;;;;;1.27;0.30;;;18.60;53.10;;;;;;4976578;28;20042;-83
2021/05/31 05:57:36;;;;;;;0.10;0.05;;;18.70;53.00;;;;;;5009390;28;20038;-85
2021/05/31 06:00:29;;;;;;;0.30;0.10;;;18.90;52.80;;;;;;4992413;28;20062;-84
2021/05/31 06:02:55;;;;;;;0.30;0.20;;;19.00;52.60;;;;;;4971493;28;20061;-84
2021/05/31 06:05:21;;;;;;;0.75;0.40;;;19.00;52.60;;;;;;4956143;28;20045;-85
2021/05/31 06:07:48;;;;;;;0.57;0.30;;;18.90;52.60;;;;;;4973467;28;20045;-84
2021/05/31 06:10:14;;;;;;;0.68;0.32;;;18.90;52.70;;;;;;4972374;28;20033;-83
2021/05/31 06:12:41;;;;;;;0.13;0.00;;;19.00;52.70;;;;;;4988829;28;20031;-85
2021/05/31 06:15:08;;;;;;;0.88;0.20;;;19.00;52.50;;;;;;4971750;28;20465;-84
2021/05/31 06:17:34;;;;;;;0.30;0.08;;;19.10;52.40;;;;;;4988336;28;20031;-84
2021/05/31 06:20:01;;;;;;;0.93;0.10;;;19.20;52.30;;;;;;4973063;28;20392;-85
2021/05/31 06:22:32;;;;;;;1.23;0.35;;;19.20;52.20;;;;;;4972374;28;20464;-84
2021/05/31 06:24:58;;;;;;;0.28;0.10;;;19.40;52.10;;;;;;4972662;28;20046;-85
2021/05/31 06:27:25;;;;;;;0.05;0.00;;;19.60;51.80;;;;;;4988282;28;20046;-85
2021/05/31 06:29:51;;;;;;;0.30;0.08;;;19.80;51.60;;;;;;4973207;28;20035;-85
2021/05/31 06:32:17;;;;;;;0.55;0.17;;;20.00;51.40;;;;;;4985065;28;20038;-85
2021/05/31 06:34:44;;;;;;;0.55;0.22;;;20.10;51.10;;;;;;4972060;28;20038;-85
2021/05/31 06:37:10;;;;;;;0.52;0.10;;;20.20;51.00;;;;;;4976280;28;20431;-83
2021/05/31 06:39:36;;;;;;;2.15;0.30;;;20.30;50.90;;;;;;4976176;28;20423;-85
2021/05/31 06:42:03;;;;;;;0.08;0.03;;;20.30;50.80;;;;;;4976260;28;20042;-85
2021/05/31 06:44:29;;;;;;;3.65;0.25;;;20.30;50.80;;;;;;4976092;28;20033;-84
2021/05/31 06:46:55;;;;;;;2.85;0.32;;;20.20;50.80;;;;;;4971306;28;20435;-85
2021/05/31 06:49:23;;;;;;;0.40;0.17;;;20.20;51.00;;;;;;4972881;28;20027;-85
2021/05/31 06:51:49;;;;;;;0.45;0.20;;;20.20;50.80;;;;;;4974189;28;20027;-84
2021/05/31 06:54:15;;;;;;;0.30;0.13;;;20.30;50.70;;;;;;4975779;28;20031;-84
2021/05/31 06:56:41;;;;;;;0.50;0.10;;;20.40;50.60;;;;;;4976208;28;20022;-85
2021/05/31 06:59:07;;;;;;;0.20;0.10;;;20.60;50.40;;;;;;4956413;28;20058;-85
2021/05/31 07:01:33;;;;;;;2.22;0.15;;;20.70;50.30;;;;;;4975121;28;20507;-85
2021/05/31 07:04:00;;;;;;;0.57;0.10;;;20.70;50.10;;;;;;4956621;28;20043;-85
2021/05/31 07:06:26;;;;;;;0.50;0.20;;;20.70;50.10;;;;;;4990759;28;20027;-85
2021/05/31 07:08:52;;;;;;;0.10;0.10;;;20.70;50.00;;;;;;4991695;28;20072;-85
2021/05/31 07:11:22;;;;;;;0.13;0.10;;;20.80;49.90;;;;;;4975543;28;20416;-85
2021/05/31 07:13:48;;;;;;;1.75;0.10;;;20.80;49.80;;;;;;4975478;28;20023;-86
2021/05/31 07:16:14;;;;;;;0.40;0.10;;;20.80;49.80;;;;;;4983752;28;20042;-86
2021/05/31 07:18:40;;;;;;;0.70;0.20;;;20.80;49.80;;;;;;5012592;28;20392;-86
2021/05/31 07:21:07;;;;;;;0.85;0.10;;;20.90;49.60;;;;;;5012119;28;20035;-86
2021/05/31 07:23:36;;;;;;;0.10;0.00;;;20.90;49.40;;;;;;5012041;28;20392;-85
2021/05/31 07:26:02;;;;;;;0.32;0.10;;;21.00;49.30;;;;;;4978363;28;20034;-85
2021/05/31 07:28:28;;;;;;;1.27;0.40;;;21.00;49.20;;;;;;4977809;28;20034;-86
2021/05/31 07:30:55;;;;;;;0.17;0.03;;;21.20;49.10;;;;;;4995264;28;20515;-85
2021/05/31 07:33:21;;;;;;;0.70;0.25;;;21.40;48.80;;;;;;4976291;28;20039;-84
2021/05/31 07:35:47;;;;;;;0.95;0.30;;;21.40;48.50;;;;;;4974959;28;20495;-82
2021/05/31 07:38:13;;;;;;;0.55;0.22;;;21.50;48.30;;;;;;4975159;28;20034;-84
2021/05/31 07:40:39;;;;;;;0.70;0.10;;;21.60;48.20;;;;;;4975296;28;20432;-86
2021/05/31 07:43:05;;;;;;;0.75;0.10;;;21.70;48.10;;;;;;4991753;28;20027;-85
2021/05/31 07:45:31;;;;;;;0.10;0.00;;;21.80;48.00;;;;;;4973632;28;20384;-84
2021/05/31 07:47:57;;;;;;;1.75;0.20;;;21.90;47.70;;;;;;4989828;28;20042;-85
2021/05/31 07:50:23;;;;;;;0.28;0.00;;;22.00;47.50;;;;;;4957789;28;20039;-86
2021/05/31 07:52:49;;;;;;;3.47;0.10;;;22.10;47.40;;;;;;4973614;28;20037;-86
2021/05/31 07:55:16;;;;;;;1.45;0.17;;;22.30;47.20;;;;;;4973940;28;20499;-86
2021/05/31 07:57:43;;;;;;;0.13;0.05;;;22.40;47.00;;;;;;4973168;28;20119;-86
2021/05/31 08:00:12;;;;;;;0.03;0.00;;;22.50;46.80;;;;;;4972665;28;20035;-85
2021/05/31 08:02:40;;;;;;;0.88;0.28;;;22.70;46.60;;;;;;4973155;28;20022;-85
2021/05/31 08:05:07;;;;;;;0.63;0.15;;;22.80;46.30;;;;;;4956711;28;20043;-85
2021/05/31 08:07:33;;;;;;;0.63;0.00;;;22.90;46.20;;;;;;4974625;28;20030;-86
2021/05/31 08:09:59;;;;;;;0.98;0.30;;;23.00;46.10;;;;;;4973989;28;20396;-86
2021/05/31 08:12:25;;;;;;;1.08;0.25;;;23.00;46.00;;;;;;4973324;28;20034;-86
2021/05/31 08:14:51;;;;;;;1.90;0.30;;;23.10;45.90;;;;;;4974129;28;20034;-86
2021/05/31 08:17:17;;;;;;;2.00;0.35;;;23.30;45.80;;;;;;4986148;28;20482;-86
2021/05/31 08:19:43;;;;;;;4.95;0.32;;;23.40;45.60;;;;;;4974782;28;20057;-86
2021/05/31 08:22:10;;;;;;;0.25;0.10;;;23.60;45.30;;;;;;4978508;28;20034;-83
2021/05/31 08:24:36;;;;;;;0.43;0.20;;;23.70;45.00;;;;;;4978576;28;20061;-87
2021/05/31 08:27:02;;;;;;;0.65;0.10;;;23.70;44.90;;;;;;4977230;28;20027;-85
2021/05/31 08:29:28;;;;;;;0.90;0.13;;;23.80;44.90;;;;;;4977030;28;20037;-85
2021/05/31 08:31:56;;;;;;;0.70;0.17;;;24.00;44.80;;;;;;4972709;28;20400;-86
2021/05/31 08:34:24;;;;;;;0.28;0.08;;;24.00;44.60;;;;;;4973075;28;20384;-86
2021/05/31 08:36:50;;;;;;;0.32;0.10;;;24.20;44.60;;;;;;4974580;28;20039;-85
2021/05/31 08:39:16;;;;;;;0.82;0.35;;;24.30;44.40;;;;;;4972868;28;20415;-85
2021/05/31 08:41:42;;;;;;;0.70;0.13;;;24.50;44.10;;;;;;4972931;28;20038;-87
2021/05/31 08:44:09;;;;;;;1.27;0.30;;;24.50;44.00;;;;;;4972488;28;20023;-87
2021/05/31 08:46:35;;;;;;;0.90;0.20;;;24.50;43.90;;;;;;4941165;28;1226060;-85
2021/05/31 08:49:01;;;;;;;0.60;0.08;;;24.60;43.90;;;;;;4994771;28;20505;-86
2021/05/31 08:51:27;;;;;;;0.30;0.20;;;24.70;43.60;;;;;;4994482;28;20042;-86
2021/05/31 08:53:54;;;;;;;0.45;0.10;;;24.70;43.60;;;;;;4978919;28;20034;-87
2021/05/31 08:56:20;;;;;;;0.38;0.08;;;24.80;43.60;;;;;;4977915;28;20029;-87
2021/05/31 08:58:48;;;;;;;0.32;0.10;;;25.00;43.30;;;;;;4975140;28;20018;-86
2021/05/31 09:01:15;;;;;;;1.05;0.15;;;25.10;43.10;;;;;;4976314;28;20434;-86
2021/05/31 09:03:44;;;;;;;0.95;0.10;;;25.10;42.70;;;;;;4974858;28;20034;-86
2021/05/31 09:06:13;;;;;;;0.90;0.17;;;25.10;42.40;;;;;;4973332;28;20384;-86
2021/05/31 09:08:45;;;;;;;1.17;0.17;;;25.00;42.50;;;;;;4973478;28;20511;-87
2021/05/31 09:11:18;;;;;;;0.17;0.00;;;24.90;42.40;;;;;;4973368;28;20027;-87
2021/05/31 09:13:44;;;;;;;0.45;0.00;;;24.90;42.30;;;;;;4972846;28;20038;-87
2021/05/31 09:16:13;;;;;;;0.40;0.10;;;25.00;42.40;;;;;;4981700;28;20039;-86
2021/05/31 09:18:44;;;;;;;0.20;0.10;;;25.20;42.30;;;;;;4979007;28;20030;-87
2021/05/31 09:21:24;;;;;;;0.43;0.10;;;25.40;42.10;;;;;;4977197;28;20497;-87
2021/05/31 09:24:01;;;;;;;0.38;0.00;;;25.70;42.30;;;;;;4978402;28;20031;-87
2021/05/31 09:26:28;;;;;;;0.43;0.13;;;25.90;41.70;;;;;;4976322;28;20051;-87
2021/05/31 09:28:59;;;;;;;0.70;0.20;;;26.10;41.60;;;;;;4958620;28;20041;-87
2021/05/31 09:31:26;;;;;;;0.45;0.10;;;26.30;41.50;;;;;;4974410;28;20491;-86
2021/05/31 09:34:08;;;;;;;0.47;0.15;;;26.40;41.30;;;;;;4974551;28;20369;-86
2021/05/31 09:36:56;;;;;;;2.42;0.90;;;26.40;41.00;;;;;;4972712;28;20029;-84
2021/05/31 09:39:33;;;;;;;0.32;0.08;;;26.40;41.10;;;;;;4973154;28;20031;-87
2021/05/31 09:42:11;;;;;;;0.10;0.00;;;26.50;41.20;;;;;;4972472;28;20030;-87
2021/05/31 09:44:37;;;;;;;0.80;0.22;;;26.70;41.00;;;;;;4972516;28;20087;-85
2021/05/31 09:47:03;;;;;;;0.22;0.00;;;26.90;40.80;;;;;;4984412;28;20049;-87
2021/05/31 09:49:29;;;;;;;0.75;0.17;;;26.90;40.30;;;;;;4973871;28;20030;-88
2021/05/31 09:52:03;;;;;;;1.55;0.13;;;26.90;40.40;;;;;;4978470;28;20384;-88
2021/05/31 09:54:34;;;;;;;0.00;0.00;;;26.80;40.40;;;;;;4976824;28;20037;-87
2021/05/31 09:57:21;;;;;;;0.38;0.17;;;26.90;40.20;;;;;;4976333;28;20026;-88
2021/05/31 09:59:54;;;;;;;0.60;0.13;;;26.80;40.10;;;;;;4973158;28;20047;-87
2021/05/31 10:10:31;;;;;;;0.30;0.10;;;26.90;39.90;;;;;;4972576;28;20027;-87
2021/05/31 10:12:57;;;;;;;0.30;0.10;;;26.80;39.70;;;;;;4972702;28;20035;-87
2021/05/31 10:15:36;;;;;;;0.20;0.10;;;26.80;39.70;;;;;;4975808;28;20061;-87
2021/05/31 10:18:04;;;;;;;2.45;0.25;;;26.80;39.60;;;;;;4965094;28;20061;-87
2021/05/31 10:20:31;;;;;;;0.52;0.10;;;26.80;39.70;;;;;;4976399;28;20072;-87
2021/05/31 10:22:57;;;;;;;1.40;0.15;;;27.10;39.60;;;;;;4958278;28;20042;-87
2021/05/31 10:25:24;;;;;;;0.93;0.10;;;27.30;39.30;;;;;;4973867;28;20041;-87
2021/05/31 10:27:53;;;;;;;1.25;0.30;;;27.40;39.10;;;;;;4992743;28;20031;-87
2021/05/31 10:30:20;;;;;;;0.32;0.10;;;27.40;39.00;;;;;;5007766;28;20022;-87
2021/05/31 10:32:47;;;;;;;0.32;0.20;;;27.50;38.80;;;;;;4987927;28;20019;-88
2021/05/31 10:35:28;;;;;;;0.47;0.10;;;27.40;38.90;;;;;;4972055;28;20045;-87
2021/05/31 10:37:55;;;;;;;0.55;0.10;;;27.40;38.80;;;;;;4972191;28;20029;-87
2021/05/31 10:40:32;;;;;;;1.65;0.43;;;27.50;38.80;;;;;;4955780;28;20051;-85
2021/05/31 10:42:58;;;;;;;0.70;0.25;;;27.60;38.60;;;;;;4971049;28;20035;-87
2021/05/31 10:45:24;;;;;;;0.30;0.10;;;27.80;38.40;;;;;;4975454;28;20041;-87
2021/05/31 10:48:10;;;;;;;0.60;0.20;;;27.80;38.20;;;;;;4983190;28;20042;-87
2021/05/31 10:50:45;;;;;;;0.30;0.10;;;27.70;37.90;;;;;;4976121;28;20030;-87
2021/05/31 10:53:18;;;;;;;0.08;0.00;;;27.70;37.90;;;;;;4977022;28;20394;-87
2021/05/31 10:56:04;;;;;;;0.52;0.10;;;27.70;37.70;;;;;;4958152;28;20031;-87
2021/05/31 10:58:47;;;;;;;0.73;0.20;;;27.80;37.50;;;;;;4974187;28;20027;-87
2021/05/31 11:01:18;;;;;;;0.20;0.10;;;27.80;37.30;;;;;;4999845;28;20050;-88
2021/05/31 11:03:59;;;;;;;;;;;27.80;37.30;;;;;;5008520;28;20027;-87
2021/05/31 11:06:26;;;;;;;0.90;0.20;;;27.90;37.20;;;;;;4977207;28;19933;-88
2021/05/31 11:09:04;;;;;;;1.33;0.28;;;28.00;37.00;;;;;;4975731;28;20103;-87
2021/05/31 11:11:37;;;;;;;0.43;0.10;;;27.90;36.90;;;;;;4975810;28;20053;-87
2021/05/31 11:14:04;;;;;;;0.47;0.10;;;27.90;36.60;;;;;;4974675;28;20026;-87
2021/05/31 11:16:33;;;;;;;0.43;0.10;;;27.80;36.60;;;;;;4972350;28;20039;-87
2021/05/31 11:19:04;;;;;;;0.20;0.00;;;27.80;36.50;;;;;;4988383;28;20038;-84
2021/05/31 11:21:36;;;;;;;0.60;0.10;;;27.90;36.40;;;;;;4987526;28;20050;-84
2021/05/31 11:24:23;;;;;;;0.40;0.10;;;28.00;36.90;;;;;;4971282;28;20058;-88
2021/05/31 11:26:49;;;;;;;1.30;0.20;;;28.10;36.00;;;;;;4972561;28;20037;-86
2021/05/31 11:29:15;;;;;;;0.10;0.00;;;28.20;35.80;;;;;;4971395;28;20038;-85
2021/05/31 11:31:43;;;;;;;0.20;0.10;;;28.30;35.80;;;;;;4980414;28;20499;-86
2021/05/31 11:34:10;;;;;;;1.13;0.20;;;28.30;35.70;;;;;;5016563;28;20039;-87
2021/05/31 11:36:43;;;;;;;0.03;0.00;;;28.30;35.70;;;;;;4992098;28;20039;-87
2021/05/31 11:39:10;;;;;;;0.20;0.10;;;28.20;35.70;;;;;;4979553;28;20038;-87
2021/05/31 11:41:42;;;;;;;0.20;0.10;;;28.20;35.60;;;;;;4979187;28;20039;-87
2021/05/31 11:44:24;;;;;;;0.25;0.10;;;28.30;35.50;;;;;;4979653;28;20467;-87
2021/05/31 11:46:52;;;;;;;0.15;0.05;;;28.40;35.50;;;;;;4960267;28;20050;-87
2021/05/31 11:49:19;;;;;;;0.82;0.17;;;28.60;35.20;;;;;;4975280;28;20022;-87
2021/05/31 11:52:05;;;;;;;0.43;0.20;;;28.60;35.20;;;;;;4976106;28;20026;-87
2021/05/31 11:54:33;;;;;;;0.73;0.30;;;28.60;35.20;;;;;;4974833;28;20379;-87
2021/05/31 11:57:13;;;;;;;4.20;0.10;;;28.70;35.20;;;;;;4974636;28;20046;-86
2021/05/31 11:59:43;;;;;;;0.40;0.15;;;28.70;35.00;;;;;;4974438;28;20030;-81
2021/05/31 12:02:13;;;;;;;0.45;0.20;;;28.60;34.80;;;;;;4987221;28;20045;-86
2021/05/31 12:04:42;;;;;;;0.28;0.00;;;28.60;34.80;;;;;;4960621;28;20034;-87
2021/05/31 12:07:09;;;;;;;0.55;0.20;;;28.50;34.80;;;;;;5002241;28;20487;-87
2021/05/31 12:09:36;;;;;;;0.47;0.10;;;28.50;34.80;;;;;;4978663;28;20046;-87
2021/05/31 12:12:02;;;;;;;0.22;0.10;;;28.50;34.90;;;;;;4978780;28;20380;-85
2021/05/31 12:14:29;;;;;;;0.85;0.10;;;28.60;34.90;;;;;;4978696;28;20045;-87
2021/05/31 12:16:59;;;;;;;0.00;0.00;;;28.80;34.80;;;;;;4974004;28;20045;-87
2021/05/31 12:19:29;;;;;;;0.17;0.10;;;29.10;34.80;;;;;;4974430;28;20027;-85
2021/05/31 12:21:59;;;;;;;1.05;0.13;;;29.00;34.30;;;;;;4990135;28;20049;-85
2021/05/31 12:24:30;;;;;;;0.38;0.00;;;28.90;34.30;;;;;;4974142;28;20031;-87
2021/05/31 12:26:58;;;;;;;0.30;0.10;;;28.90;34.10;;;;;;4974186;28;20047;-86
2021/05/31 12:29:32;;;;;;;0.65;0.17;;;28.90;34.10;;;;;;4974128;28;20030;-87
2021/05/31 12:31:58;;;;;;;0.43;0.03;;;28.80;33.90;;;;;;4985004;28;20042;-87
2021/05/31 12:34:25;;;;;;;0.00;0.00;;;28.80;34.00;;;;;;4976039;28;20388;-86
2021/05/31 12:36:52;;;;;;;0.13;0.00;;;28.80;33.70;;;;;;4977620;28;20034;-84
2021/05/31 12:39:18;;;;;;;0.45;0.00;;;28.80;33.60;;;;;;4978273;28;20038;-86
2021/05/31 12:41:45;;;;;;;0.43;0.08;;;28.70;33.40;;;;;;4979169;28;20046;-86
2021/05/31 12:44:11;;;;;;;0.60;0.10;;;28.70;33.40;;;;;;4977907;28;20514;-86
2021/05/31 12:46:44;;;;;;;0.20;0.00;;;28.70;33.40;;;;;;4973571;28;20038;-86
2021/05/31 12:49:14;;;;;;;0.90;0.20;;;28.80;33.40;;;;;;4985746;28;20054;-87
2021/05/31 12:51:50;;;;;;;0.00;0.00;;;28.90;34.00;;;;;;4974347;28;20046;-85
2021/05/31 12:54:17;;;;;;;0.10;0.00;;;28.90;33.10;;;;;;4954495;28;20043;-85
2021/05/31 12:56:43;;;;;;;0.10;0.00;;;28.90;33.10;;;;;;4967056;28;20043;-84
2021/05/31 12:59:09;;;;;;;0.95;0.25;;;28.80;32.90;;;;;;4974886;28;20027;-87
2021/05/31 13:01:36;;;;;;;1.60;0.10;;;28.70;32.80;;;;;;4982130;28;20046;-87
2021/05/31 13:04:02;;;;;;;0.05;0.00;;;28.70;32.90;;;;;;4994515;28;20019;-87
2021/05/31 13:06:38;;;;;;;0.25;0.05;;;28.80;33.00;;;;;;5009973;28;20038;-86
2021/05/31 13:09:05;;;;;;;0.30;0.10;;;28.90;32.90;;;;;;4978813;28;20035;-86
2021/05/31 13:11:41;;;;;;;3.80;0.10;;;28.90;32.80;;;;;;4961584;28;20030;-84
2021/05/31 13:14:22;;;;;;;0.82;0.10;;;28.90;32.70;;;;;;4976763;28;20041;-86
2021/05/31 13:16:59;;;;;;;0.20;0.17;;;28.90;32.90;;;;;;4975670;28;20042;-86
2021/05/31 13:19:27;;;;;;;0.40;0.10;;;28.90;32.90;;;;;;4973014;28;20053;-86